Time;durP1;ratioP1;P1;durP2;ratioP2;P2;SDS_P1;SDS_P2;PMS_P1;PMS_P2;Temp;Humidity;BMP_temperature;BMP_pressure;BME280_temperature;BME280_humidity;BME280_pressure;Samples;Min_cycle;Max_cycle;Signal;HPM_P1;HPM_P2
2023/09/11 00:01:58;;;;;;;16.55;15.85;;;;;;;-141.02;100.00;40172.38;5136052;27;20188;-57
2023/09/11 00:04:25;;;;;;;16.70;16.00;;;;;;;-141.02;100.00;40157.03;5135600;27;20231;-58
2023/09/11 00:06:52;;;;;;;16.80;16.10;;;;;;;-141.02;100.00;40114.84;5135634;27;20220;-58
2023/09/11 00:09:19;;;;;;;16.30;15.60;;;;;;;-141.02;100.00;40076.47;5135977;27;20232;-58
2023/09/11 00:11:46;;;;;;;16.27;15.57;;;;;;;-141.02;100.00;39984.41;5135627;27;20188;-58
2023/09/11 00:14:13;;;;;;;16.33;15.63;;;;;;;-141.02;100.00;39859.72;5135821;27;20230;-58
2023/09/11 00:16:41;;;;;;;15.70;15.10;;;;;;;-141.02;100.00;39811.78;5135551;27;20188;-58
2023/09/11 00:19:12;;;;;;;15.80;15.20;;;;;;;-141.02;100.00;39815.59;5135780;27;20196;-57
2023/09/11 00:21:39;;;;;;;15.77;15.18;;;;;;;-141.02;100.00;39798.34;5135746;27;20650;-57
2023/09/11 00:24:06;;;;;;;15.80;15.20;;;;;;;-141.02;100.00;39777.25;5135757;27;20587;-58
2023/09/11 00:26:33;;;;;;;15.65;15.05;;;;;;;-141.02;100.00;39723.53;5136129;27;20281;-58
2023/09/11 00:29:00;;;;;;;15.45;14.85;;;;;;;-141.02;100.00;39742.72;5135325;27;20692;-58
2023/09/11 00:31:27;;;;;;;15.25;14.65;;;;;;;-141.02;100.00;39702.44;5135488;27;20275;-58
2023/09/11 00:33:55;;;;;;;15.57;14.98;;;;;;;-141.02;100.00;39658.34;5135206;27;20662;-57
2023/09/11 00:36:24;;;;;;;15.60;15.00;;;;;;;-141.02;100.00;39643.00;5135097;27;20647;-57
2023/09/11 00:38:51;;;;;;;15.50;14.90;;;;;;;-141.02;100.00;39573.94;5135435;27;20218;-58
2023/09/11 00:41:18;;;;;;;15.43;14.82;;;;;;;-141.02;100.00;39504.91;5135072;27;20283;-58
2023/09/11 00:43:45;;;;;;;15.40;14.80;;;;;;;-141.02;100.00;39462.72;5134926;27;20276;-58
2023/09/11 00:46:12;;;;;;;15.68;15.07;;;;;;;-141.02;100.00;39430.09;5134913;27;20283;-58
2023/09/11 00:48:39;;;;;;;15.05;14.55;;;;;;;-141.02;100.00;39380.25;5135225;27;20200;-58
2023/09/11 00:51:06;;;;;;;14.73;14.23;;;;;;;-141.02;100.00;39320.78;5135155;27;20279;-57
2023/09/11 00:53:35;;;;;;;15.05;14.55;;;;;;;-141.02;100.00;39290.13;5135078;27;20224;-58
2023/09/11 00:56:02;;;;;;;14.80;14.30;;;;;;;-141.02;100.00;39217.25;5135072;27;20196;-58
2023/09/11 00:58:30;;;;;;;14.43;13.93;;;;;;;-141.02;100.00;39188.47;5135060;27;20196;-58
2023/09/11 01:00:57;;;;;;;14.57;14.07;;;;;;;-141.02;100.00;39136.69;5134638;27;20279;-57
2023/09/11 01:03:24;;;;;;;14.35;13.85;;;;;;;-141.02;100.00;39153.97;5134636;27;20283;-57
2023/09/11 01:05:51;;;;;;;14.68;14.18;;;;;;;-141.02;100.00;39096.44;5134428;27;20296;-57
2023/09/11 01:08:20;;;;;;;14.55;14.05;;;;;;;-141.02;100.00;39079.16;5134444;27;20231;-58
2023/09/11 01:10:49;;;;;;;14.40;13.90;;;;;;;-141.02;100.00;39000.53;5134491;27;20188;-57
2023/09/11 01:13:16;;;;;;;14.40;13.90;;;;;;;-141.02;100.00;38960.28;5134352;27;20232;-58
2023/09/11 01:15:50;;;;;;;14.05;13.55;;;;;;;-141.02;100.00;38952.59;5133845;27;20203;-58
2023/09/11 01:18:24;;;;;;;14.30;13.80;;;;;;;-141.02;100.00;38883.56;5134366;27;20180;-58
2023/09/11 01:21:22;;;;;;;14.23;13.73;;;;;;;-141.02;100.00;38910.44;5134643;27;20184;-58
2023/09/11 01:24:09;;;;;;;14.10;13.60;;;;;;;-141.02;100.00;38860.56;5134178;27;20196;-57
2023/09/11 01:27:09;;;;;;;14.05;13.55;;;;;;;-141.02;100.00;38849.06;5134062;27;20272;-57
2023/09/11 01:29:40;;;;;;;13.88;13.48;;;;;;;-141.02;100.00;38806.88;5134045;27;20192;-58
2023/09/11 01:32:08;;;;;;;14.25;13.75;;;;;;;-141.02;100.00;38803.03;5134387;27;20230;-57
2023/09/11 01:34:35;;;;;;;13.93;13.43;;;;;;;-141.02;100.00;38837.56;5134214;27;20200;-58
2023/09/11 01:37:02;;;;;;;14.20;13.70;;;;;;;-141.02;100.00;38808.78;5133984;27;20749;-57
2023/09/11 01:39:29;;;;;;;14.07;13.57;;;;;;;-141.02;100.00;38764.69;5133880;27;20568;-58
2023/09/11 01:42:02;;;;;;;14.15;13.65;;;;;;;-141.02;100.00;38730.19;5133920;27;20283;-58
2023/09/11 01:44:35;;;;;;;14.00;13.50;;;;;;;-141.02;100.00;38734.03;5133798;27;20658;-57
2023/09/11 01:47:05;;;;;;;13.98;13.48;;;;;;;-141.02;100.00;38747.44;5134015;27;20238;-58
2023/09/11 01:49:34;;;;;;;14.02;13.52;;;;;;;-141.02;100.00;38709.09;5133726;27;20568;-57
2023/09/11 01:52:03;;;;;;;13.75;13.35;;;;;;;-141.02;100.00;38707.19;5133995;27;20198;-57
2023/09/11 01:54:30;;;;;;;13.70;13.30;;;;;;;-141.02;100.00;38682.25;5133943;27;20200;-58
2023/09/11 01:56:57;;;;;;;13.60;13.20;;;;;;;-141.02;100.00;38691.84;5133551;27;20706;-57
2023/09/11 01:59:25;;;;;;;13.57;13.18;;;;;;;-141.02;100.00;38668.81;5133588;27;20196;-57
2023/09/11 02:01:52;;;;;;;13.38;12.98;;;;;;;-141.02;100.00;38605.56;5133812;27;20275;-57
2023/09/11 02:04:20;;;;;;;13.60;13.20;;;;;;;-141.02;100.00;38586.38;5133504;27;20355;-57
2023/09/11 02:06:47;;;;;;;13.40;13.00;;;;;;;-141.02;100.00;38584.47;5133624;27;20271;-58
2023/09/11 02:09:14;;;;;;;13.60;13.20;;;;;;;-141.02;100.00;38592.13;5133709;27;20192;-57
2023/09/11 02:11:41;;;;;;;13.40;13.00;;;;;;;-141.02;100.00;38576.78;5133371;27;20753;-57
2023/09/11 02:14:08;;;;;;;13.00;12.60;;;;;;;-141.02;100.00;38565.28;5133638;27;20189;-57
2023/09/11 02:16:36;;;;;;;13.07;12.68;;;;;;;-141.02;100.00;38565.28;5133569;27;20615;-57
2023/09/11 02:19:03;;;;;;;13.40;13.00;;;;;;;-141.02;100.00;38488.59;5133583;27;20224;-57
2023/09/11 02:21:31;;;;;;;13.20;12.80;;;;;;;-141.02;100.00;38525.03;5133206;27;20279;-58
2023/09/11 02:23:58;;;;;;;13.25;12.85;;;;;;;-141.02;100.00;38511.59;5133549;27;20196;-58
2023/09/11 02:26:25;;;;;;;13.07;12.68;;;;;;;-141.02;100.00;38559.53;5132884;27;20228;-57
2023/09/11 02:28:52;;;;;;;12.93;12.52;;;;;;;-141.02;100.00;38553.78;5132339;27;20227;-57
2023/09/11 02:31:19;;;;;;;12.82;12.43;;;;;;;-141.02;100.00;38523.09;5133372;27;20271;-57
2023/09/11 02:33:46;;;;;;;13.55;13.15;;;;;;;-141.02;100.00;38500.09;5133407;27;20247;-57
2023/09/11 02:36:13;;;;;;;13.30;12.90;;;;;;;-141.02;100.00;38496.28;5133334;27;20279;-58
2023/09/11 02:38:41;;;;;;;12.90;12.50;;;;;;;-141.02;100.00;38494.34;5132942;27;20197;-57
2023/09/11 02:41:08;;;;;;;13.00;12.60;;;;;;;-141.02;100.00;38482.84;5133344;27;20269;-57
2023/09/11 02:43:35;;;;;;;13.07;12.68;;;;;;;-141.02;100.00;38471.34;5132951;27;20559;-58
2023/09/11 02:46:02;;;;;;;12.85;12.45;;;;;;;-141.02;100.00;38490.50;5132875;27;20553;-57
2023/09/11 02:48:31;;;;;;;12.80;12.40;;;;;;;-141.02;100.00;38492.44;5133161;27;20307;-57
2023/09/11 02:50:58;;;;;;;12.98;12.57;;;;;;;-141.02;100.00;38461.75;5133241;27;20254;-57
2023/09/11 02:53:25;;;;;;;12.77;12.38;;;;;;;-141.02;100.00;38461.75;5132903;27;20192;-57
2023/09/11 02:55:53;;;;;;;12.70;12.30;;;;;;;-141.02;100.00;38425.31;5133133;27;20196;-57
2023/09/11 02:58:20;;;;;;;12.50;12.10;;;;;;;-141.02;100.00;38415.75;5132774;27;20670;-57
2023/09/11 03:00:47;;;;;;;12.68;12.27;;;;;;;-141.02;100.00;38381.22;5133101;27;20199;-57
2023/09/11 03:03:14;;;;;;;12.70;12.30;;;;;;;-141.02;100.00;38369.72;5133100;27;20275;-57
2023/09/11 03:05:41;;;;;;;12.80;12.40;;;;;;;-141.02;100.00;38296.88;5132397;27;20645;-57
2023/09/11 03:08:08;;;;;;;13.02;12.63;;;;;;;-141.02;100.00;38231.69;5132897;27;20312;-57
2023/09/11 03:10:35;;;;;;;12.90;12.50;;;;;;;-141.02;100.00;38132.00;5133013;27;20196;-57
2023/09/11 03:13:05;;;;;;;12.60;12.20;;;;;;;-141.02;100.00;38078.31;5132691;27;20283;-57
2023/09/11 03:15:32;;;;;;;11.65;11.35;;;;;;;-141.02;100.00;38074.50;5133076;27;20189;-58
2023/09/11 03:17:59;;;;;;;11.30;11.00;;;;;;;-141.02;100.00;38057.25;5132640;27;20284;-57
2023/09/11 03:20:26;;;;;;;10.85;10.55;;;;;;;-141.02;100.00;38066.81;5132562;27;20653;-59
2023/09/11 03:23:04;;;;;;;11.27;10.98;;;;;;;-141.02;100.00;38059.16;5132922;27;20273;-57
2023/09/11 03:25:34;;;;;;;11.00;10.70;;;;;;;-141.02;100.00;38147.34;5132590;27;20196;-57
2023/09/11 03:28:04;;;;;;;10.60;10.30;;;;;;;-141.02;100.00;38289.22;5133706;27;20231;-57
2023/09/11 03:30:31;;;;;;;10.45;10.15;;;;;;;-141.02;100.00;38584.47;5132443;27;20287;-57
2023/09/11 03:32:58;;;;;;;10.27;9.98;;;;;;;-141.02;100.00;39345.72;5132543;27;20228;-57
2023/09/11 03:35:25;;;;;;;9.95;9.65;;;;;;;-141.02;100.00;39934.53;5132762;27;20228;-57
2023/09/11 03:37:52;;;;;;;9.80;9.50;;;;;;;-141.02;100.00;40916.75;5132741;27;20231;-57
2023/09/11 03:40:20;;;;;;;9.93;9.63;;;;;;;-141.02;100.00;41546.13;5135727;27;20200;-57
2023/09/11 03:42:47;;;;;;;10.10;9.80;;;;;;;-141.02;100.00;42309.97;5136192;27;20724;-57
2023/09/11 03:45:16;;;;;;;9.60;9.30;;;;;;;-141.02;100.00;43492.56;5136162;27;20676;-57
2023/09/11 03:47:43;;;;;;;9.68;9.38;;;;;;;-141.02;100.00;45046.28;5136358;27;20272;-57
2023/09/11 03:50:10;;;;;;;9.55;9.25;;;;;;;-141.02;100.00;48050.16;5136444;27;20245;-57
2023/09/11 03:52:37;;;;;;;8.90;8.70;;;;;;;-141.02;100.00;51174.13;5135972;27;20193;-57
2023/09/11 03:55:05;;;;;;;9.10;8.90;;;;;;;-141.02;100.00;52814.19;5136063;27;20287;-57
2023/09/11 03:57:32;;;;;;;9.80;9.50;;;;;;;-141.02;100.00;53800.16;5136318;27;20273;-57
2023/09/11 03:59:59;;;;;;;10.45;10.15;;;;;;;-141.02;100.00;55033.00;5135799;27;20228;-57
2023/09/11 04:02:27;;;;;;;9.85;9.55;;;;;;;-141.02;100.00;56759.78;5135839;27;20678;-57
2023/09/11 04:04:54;;;;;;;9.60;9.30;;;;;;;-141.02;100.00;58981.19;5135212;27;20733;-57
2023/09/11 04:07:21;;;;;;;9.07;8.88;;;;;;;-141.02;100.00;61698.22;5135660;27;20641;-57
2023/09/11 04:09:48;;;;;;;9.18;8.98;;;;;;;-141.02;100.00;64664.72;5136027;27;20227;-58
2023/09/11 04:12:16;;;;;;;8.93;8.73;;;;;;;-141.02;100.00;67138.78;5135908;27;20227;-58
2023/09/11 04:14:43;;;;;;;8.75;8.55;;;;;;;-141.02;100.00;68871.72;5135587;27;20666;-57
2023/09/11 04:17:11;;;;;;;8.63;8.43;;;;;;;-141.02;100.00;70110.03;5135924;27;20196;-57
2023/09/11 04:19:39;;;;;;;8.70;8.50;;;;;;;-141.02;100.00;71101.03;5135533;27;20192;-57
2023/09/11 04:22:07;;;;;;;8.95;8.75;;;;;;;-141.02;100.00;71844.47;5135430;27;20196;-57
2023/09/11 04:24:34;;;;;;;9.00;8.80;;;;;;;-141.02;100.00;72835.97;5135684;27;20280;-57
2023/09/11 04:27:01;;;;;;;8.75;8.55;;;;;;;-141.02;100.00;73579.75;5135373;27;20657;-57
2023/09/11 04:29:29;;;;;;;8.55;8.35;;;;;;;-141.02;100.00;74075.72;5135255;27;20784;-57
2023/09/11 04:31:56;;;;;;;8.50;8.30;;;;;;;-141.02;100.00;74323.72;5135293;27;20577;-57
2023/09/11 04:34:23;;;;;;;8.70;8.50;;;;;;;-141.02;100.00;74323.72;5135129;27;20283;-57
2023/09/11 04:36:52;;;;;;;8.60;8.40;;;;;;;-141.02;100.00;74075.72;5135494;27;20188;-57
2023/09/11 04:39:19;;;;;;;8.45;8.25;;;;;;;-141.02;100.00;73331.81;5135128;27;20283;-57
2023/09/11 04:41:45;;;;;;;9.20;9.00;;;;;;;-141.02;100.00;72835.97;5135339;27;20275;-58
2023/09/11 04:44:12;;;;;;;9.70;9.40;;;;;;;-141.02;100.00;72092.31;5135357;27;20199;-57
2023/09/11 04:46:39;;;;;;;9.50;9.20;;;;;;;-141.02;100.00;71101.03;5134901;27;20193;-57
2023/09/11 04:49:06;;;;;;;9.50;9.20;;;;;;;-141.02;100.00;70605.50;5134962;27;20317;-57
2023/09/11 04:51:33;;;;;;;9.48;9.20;;;;;;;-141.02;100.00;70357.75;5134141;27;20200;-57
2023/09/11 04:54:02;;;;;;;10.02;9.73;;;;;;;-141.02;100.00;69119.34;5134812;27;20677;-58
2023/09/11 04:56:29;;;;;;;10.15;9.85;;;;;;;-141.02;100.00;67138.78;5135262;27;20279;-57
2023/09/11 04:58:56;;;;;;;10.60;10.30;;;;;;;-141.02;100.00;65654.13;5134668;27;20199;-57
2023/09/11 05:01:23;;;;;;;10.68;10.38;;;;;;;-141.02;100.00;64417.41;5134698;27;20285;-57
2023/09/11 05:03:50;;;;;;;10.43;10.13;;;;;;;-141.02;100.00;62686.75;5134075;27;20283;-58
2023/09/11 05:06:16;;;;;;;10.63;10.32;;;;;;;-141.02;100.00;60462.94;5134914;27;20241;-57
2023/09/11 05:08:43;;;;;;;10.65;10.35;;;;;;;-141.02;100.00;58487.41;5134726;27;20314;-57
2023/09/11 05:11:12;;;;;;;11.50;11.20;;;;;;;-141.02;100.00;57993.72;5134749;27;20199;-58
2023/09/11 05:13:39;;;;;;;11.80;11.50;;;;;;;-141.02;100.00;57253.28;5134419;27;20192;-57
2023/09/11 05:16:06;;;;;;;11.98;11.60;;;;;;;-141.02;100.00;56166.09;5134386;27;20279;-57
2023/09/11 05:18:33;;;;;;;12.40;12.00;;;;;;;-141.02;100.00;54019.72;5134647;27;20197;-57
2023/09/11 05:21:00;;;;;;;12.30;11.90;;;;;;;-141.02;100.00;52825.75;5134575;27;20275;-57
2023/09/11 05:23:27;;;;;;;12.73;12.32;;;;;;;-141.02;100.00;51591.75;5134294;27;20219;-58
2023/09/11 05:25:54;;;;;;;13.10;12.70;;;;;;;-141.02;100.00;50385.16;5134243;27;20283;-57
2023/09/11 05:28:22;;;;;;;12.70;12.30;;;;;;;-141.02;100.00;50015.75;5134104;27;20311;-57
2023/09/11 05:30:50;;;;;;;12.85;12.45;;;;;;;-141.02;100.00;49369.41;5134421;27;20203;-57
2023/09/11 05:33:17;;;;;;;12.95;12.55;;;;;;;-141.02;100.00;48690.50;5134037;27;20287;-57
2023/09/11 05:35:45;;;;;;;13.10;12.70;;;;;;;-141.02;100.00;48119.38;5134326;27;20220;-57
2023/09/11 05:38:12;;;;;;;13.15;12.75;;;;;;;-141.02;100.00;47773.31;5134036;27;20200;-57
2023/09/11 05:40:39;;;;;;;13.63;13.23;;;;;;;-141.02;100.00;47467.63;5133813;27;20569;-57
2023/09/11 05:43:06;;;;;;;13.43;13.02;;;;;;;-141.02;100.00;47162.00;5134207;27;20594;-58
2023/09/11 05:45:34;;;;;;;13.50;13.10;;;;;;;-141.02;100.00;46254.81;5134119;27;20241;-57
2023/09/11 05:48:01;;;;;;;13.07;12.68;;;;;;;-141.02;100.00;46020.38;5134130;27;20358;-57
2023/09/11 05:50:28;;;;;;;13.70;13.20;;;;;;;-141.02;100.00;45409.38;5133750;27;20617;-57
2023/09/11 05:52:55;;;;;;;13.35;12.95;;;;;;;-141.02;100.00;45267.22;5133931;27;20223;-58
2023/09/11 05:55:22;;;;;;;13.55;13.10;;;;;;;-141.02;100.00;45144.25;5133713;27;20203;-57
2023/09/11 05:57:49;;;;;;;13.93;13.43;;;;;;;-141.02;100.00;44625.63;5133641;27;20261;-57
2023/09/11 06:00:16;;;;;;;14.13;13.63;;;;;;;-141.02;100.00;44414.34;5133597;27;20681;-58
2023/09/11 06:02:46;;;;;;;14.38;13.88;;;;;;;-141.02;100.00;43740.25;5133248;27;20283;-57
2023/09/11 06:05:13;;;;;;;14.65;14.15;;;;;;;-141.02;100.00;43527.13;5133393;27;20243;-57
2023/09/11 06:07:40;;;;;;;14.10;13.60;;;;;;;-141.02;100.00;44299.09;5133825;27;20196;-57
2023/09/11 06:10:10;;;;;;;14.85;14.35;;;;;;;-141.02;100.00;44256.84;5133334;27;20314;-58
2023/09/11 06:12:37;;;;;;;14.70;14.20;;;;;;;-141.02;100.00;44372.09;5133328;27;20732;-57
2023/09/11 06:15:05;;;;;;;14.20;13.70;;;;;;;-141.02;100.00;44402.81;5133264;27;20283;-58
2023/09/11 06:17:32;;;;;;;14.63;14.13;;;;;;;-141.02;100.00;44464.28;5133595;27;20372;-58
2023/09/11 06:20:00;;;;;;;15.07;14.57;;;;;;;-141.02;100.00;44041.75;5133195;27;20196;-57
2023/09/11 06:22:28;;;;;;;14.95;14.45;;;;;;;-141.02;100.00;43715.28;5133527;27;20271;-57
2023/09/11 06:24:55;;;;;;;15.07;14.57;;;;;;;-141.02;100.00;43191.09;5133129;27;20188;-57
2023/09/11 06:27:21;;;;;;;14.70;14.20;;;;;;;-141.02;100.00;43252.56;5133106;27;20195;-57
2023/09/11 06:29:48;;;;;;;14.55;14.05;;;;;;;-141.02;100.00;43031.75;5133097;27;20716;-58
2023/09/11 06:32:15;;;;;;;13.52;13.13;;;;;;;-141.02;100.00;43158.47;5133373;27;20193;-58
2023/09/11 06:34:42;;;;;;;13.95;13.55;;;;;;;-141.02;100.00;43004.88;5133087;27;20256;-57
2023/09/11 06:37:11;;;;;;;14.73;14.23;;;;;;;-141.02;100.00;42782.19;5133367;27;20248;-57
2023/09/11 06:39:38;;;;;;;15.43;14.93;;;;;;;-141.02;100.00;42645.88;5133284;27;20193;-57
2023/09/11 06:42:05;;;;;;;15.27;14.77;;;;;;;-141.02;100.00;42713.06;5133327;27;20275;-58
2023/09/11 06:44:32;;;;;;;15.27;14.77;;;;;;;-141.02;100.00;42352.19;5132910;27;20287;-58
2023/09/11 06:46:59;;;;;;;14.10;13.60;;;;;;;-141.02;100.00;42565.25;5132928;27;20684;-57
2023/09/11 06:49:26;;;;;;;15.98;15.38;;;;;;;-141.02;100.00;42354.13;5132906;27;20705;-57
2023/09/11 06:51:54;;;;;;;16.80;16.20;;;;;;;-141.02;100.00;42079.63;5132871;27;20292;-58
2023/09/11 06:54:23;;;;;;;15.77;15.20;;;;;;;-141.02;100.00;42058.53;5133188;27;20192;-57
2023/09/11 06:56:50;;;;;;;16.35;15.75;;;;;;;-141.02;100.00;41937.63;5132775;27;20196;-57
2023/09/11 06:59:17;;;;;;;17.40;16.70;;;;;;;-141.02;100.00;41822.47;5133136;27;20196;-58
2023/09/11 07:01:44;;;;;;;17.30;16.60;;;;;;;-141.02;100.00;41774.47;5132751;27;20622;-57
2023/09/11 07:04:11;;;;;;;17.25;16.55;;;;;;;-141.02;100.00;41761.06;5132583;27;20222;-66
2023/09/11 07:06:38;;;;;;;18.02;17.33;;;;;;;-141.02;100.00;41649.75;5132847;27;20647;-58
2023/09/11 07:09:06;;;;;;;17.85;17.15;;;;;;;-141.02;100.00;41780.25;5132603;27;20234;-57
2023/09/11 07:11:34;;;;;;;18.52;17.73;;;;;;;-141.02;98.72;41665.09;5132758;27;20197;-58
2023/09/11 07:14:02;;;;;;;19.02;18.13;;;;;;;-141.02;97.53;41718.81;5134038;27;20741;-58
2023/09/11 07:16:29;;;;;;;19.50;18.60;;;;;;;-141.02;94.07;41572.97;5137095;27;20615;-58
2023/09/11 07:18:56;;;;;;;19.63;18.73;;;;;;;-141.02;90.97;41532.69;5137028;27;20385;-67
2023/09/11 07:21:23;;;;;;;19.88;18.98;;;;;;;-141.02;90.90;41762.97;5136584;27;20192;-58
2023/09/11 07:23:50;;;;;;;19.95;19.05;;;;;;;-141.02;86.00;41899.22;5136970;27;20203;-58
2023/09/11 07:26:17;;;;;;;19.92;19.02;;;;;;;-141.02;83.32;41924.19;5136495;27;20192;-59
2023/09/11 07:29:04;;;;;;;18.58;17.67;;;;;;;-141.02;79.29;41855.09;5136433;27;20589;-58
2023/09/11 07:31:32;;;;;;;18.33;17.52;;;;;;;-141.02;78.94;41803.28;5136804;27;20255;-58
2023/09/11 07:33:59;;;;;;;19.27;18.38;;;;;;;-141.02;76.74;41776.41;5136465;27;20323;-58
2023/09/11 07:36:29;;;;;;;20.02;19.13;;;;;;;-141.02;76.41;41810.94;5136326;27;20668;-58
2023/09/11 07:38:56;;;;;;;19.77;18.88;;;;;;;-141.02;75.67;41726.50;5136333;27;20638;-58
2023/09/11 07:41:23;;;;;;;19.58;18.67;;;;;;;-141.02;75.08;41626.72;5136600;27;20231;-66
2023/09/11 07:43:50;;;;;;;19.83;18.92;;;;;;;-141.02;74.11;41668.94;5136245;27;20231;-58
2023/09/11 07:46:20;;;;;;;20.70;19.80;;;;;;;-141.02;72.01;41672.78;5136521;27;20564;-58
2023/09/11 07:48:47;;;;;;;20.50;19.60;;;;;;;-141.02;70.33;41649.75;5136336;27;20602;-58
2023/09/11 07:51:14;;;;;;;20.02;19.13;;;;;;;-141.02;70.37;41764.88;5136260;27;20238;-58
2023/09/11 07:53:42;;;;;;;20.90;19.90;;;;;;;-141.02;68.76;41697.72;5136186;27;20280;-58
2023/09/11 07:56:11;;;;;;;20.75;19.77;;;;;;;-141.02;67.63;41768.72;5136147;27;20196;-58
2023/09/11 07:58:38;;;;;;;20.88;19.88;;;;;;;-141.02;65.65;41665.09;5136295;27;20192;-58
2023/09/11 08:01:05;;;;;;;20.63;19.63;;;;;;;-141.02;66.16;41703.47;5135843;27;20288;-58
2023/09/11 08:03:35;;;;;;;20.65;19.65;;;;;;;-141.02;63.58;41599.84;5136146;27;20271;-58
2023/09/11 08:06:03;;;;;;;20.90;19.90;;;;;;;-141.02;64.56;41651.66;5135556;27;20316;-58
2023/09/11 08:08:30;;;;;;;20.85;19.85;;;;;;;-141.02;63.16;41665.09;5135741;27;20613;-58
2023/09/11 08:10:57;;;;;;;21.05;20.05;;;;;;;-141.02;62.07;41665.09;5135785;27;20765;-58
2023/09/11 08:13:24;;;;;;;20.45;19.45;;;;;;;-141.02;62.40;41674.69;5135970;27;20193;-59
2023/09/11 08:15:52;;;;;;;20.85;19.85;;;;;;;-141.02;61.79;41626.72;5135566;27;20677;-58
2023/09/11 08:18:19;;;;;;;20.58;19.58;;;;;;;-141.02;60.85;41615.19;5135804;27;20326;-58
2023/09/11 08:20:49;;;;;;;19.95;19.05;;;;;;;-141.02;61.16;41638.22;5135521;27;20196;-58
2023/09/11 08:23:16;;;;;;;21.20;20.20;;;;;;;-141.02;59.71;41553.78;5135764;27;20216;-58
2023/09/11 08:25:43;;;;;;;19.90;19.00;;;;;;;-141.02;60.39;41603.69;5135374;27;20239;-58
2023/09/11 08:28:10;;;;;;;19.70;18.80;;;;;;;-141.02;59.82;41597.94;5135332;27;20283;-58
2023/09/11 08:30:37;;;;;;;19.80;18.85;;;;;;;-141.02;59.31;41620.97;5135244;27;20315;-58
2023/09/11 08:33:04;;;;;;;18.92;18.02;;;;;;;-141.02;58.94;41630.56;5135610;27;20288;-58
2023/09/11 08:35:31;;;;;;;18.85;17.95;;;;;;;-141.02;59.20;41645.91;5135169;27;20288;-58
2023/09/11 08:37:59;;;;;;;19.20;18.20;;;;;;;-141.02;58.65;41599.84;5135482;27;20275;-58
2023/09/11 08:40:30;;;;;;;19.35;18.40;;;;;;;-141.02;57.99;41580.66;5135124;27;20729;-58
2023/09/11 08:42:58;;;;;;;19.23;18.23;;;;;;;-141.02;57.69;41626.72;5135485;27;20281;-58
2023/09/11 08:45:25;;;;;;;21.73;19.15;;;;;;;-141.02;58.16;41630.56;5135311;27;20197;-58
2023/09/11 08:47:56;;;;;;;19.00;18.00;;;;;;;-141.02;57.50;41653.59;5135235;27;20192;-58
2023/09/11 08:50:25;;;;;;;19.23;18.23;;;;;;;-141.02;57.41;41661.25;5135291;27;20261;-58
2023/09/11 08:52:55;;;;;;;19.33;18.33;;;;;;;-141.02;55.30;41713.06;5134913;27;20243;-58
2023/09/11 08:55:25;;;;;;;19.38;18.38;;;;;;;-141.02;55.36;41668.94;5134862;27;20710;-58
2023/09/11 08:57:53;;;;;;;19.40;18.40;;;;;;;-141.02;55.25;41701.56;5135066;27;20181;-66
2023/09/11 09:00:21;;;;;;;19.17;18.17;;;;;;;-141.02;55.10;41678.53;5135043;27;20279;-59
2023/09/11 09:02:49;;;;;;;19.15;18.15;;;;;;;-141.02;54.79;41663.19;5134698;27;20275;-58
2023/09/11 09:05:16;;;;;;;18.83;17.92;;;;;;;-141.02;55.42;41682.38;5134470;27;20705;-58
2023/09/11 09:07:46;;;;;;;18.90;17.90;;;;;;;-141.02;55.30;41682.38;5134869;27;20679;-58
2023/09/11 09:10:14;;;;;;;18.70;17.77;;;;;;;-141.02;55.41;41670.84;5134507;27;20235;-58
2023/09/11 09:12:44;;;;;;;19.33;18.33;;;;;;;-141.02;54.44;41736.09;5134499;27;20279;-58
2023/09/11 09:15:12;;;;;;;18.50;17.60;;;;;;;-141.02;53.53;41753.38;5134407;27;20279;-66
2023/09/11 09:17:39;;;;;;;19.20;18.17;;;;;;;-141.02;53.30;41780.25;5134327;27;20198;-58
2023/09/11 09:20:07;;;;;;;18.88;17.88;;;;;;;-141.02;53.18;41718.81;5134357;27;20228;-58
2023/09/11 09:22:35;;;;;;;18.92;17.92;;;;;;;-141.02;51.49;41780.25;5134331;27;20193;-59
2023/09/11 09:25:03;;;;;;;18.77;17.77;;;;;;;-141.02;52.82;41841.66;5134282;27;20323;-58
2023/09/11 09:27:36;;;;;;;19.02;18.02;;;;;;;-141.02;53.15;41776.41;5134474;27;20193;-58
2023/09/11 09:30:19;;;;;;;18.70;17.70;;;;;;;-141.02;53.08;41770.66;5134129;27;20671;-58
2023/09/11 09:32:47;;;;;;;18.83;17.83;;;;;;;-141.02;52.74;41799.44;5134144;27;20227;-58
2023/09/11 09:35:14;;;;;;;18.90;18.00;;;;;;;-141.02;51.79;41755.28;5134352;27;20224;-58
2023/09/11 09:37:41;;;;;;;18.65;17.65;;;;;;;-141.02;52.17;41799.44;5133503;27;20686;-58
2023/09/11 09:40:09;;;;;;;18.55;17.58;;;;;;;-141.02;50.99;41776.41;5134238;27;20271;-59
2023/09/11 09:42:40;;;;;;;18.58;17.58;;;;;;;-141.02;50.58;41799.44;5134196;27;20262;-58
2023/09/11 09:45:27;;;;;;;18.65;17.65;;;;;;;-141.02;51.10;41795.59;5133912;27;20208;-58
2023/09/11 09:48:05;;;;;;;18.33;17.42;;;;;;;-141.02;50.29;41826.31;5133810;27;20689;-58
2023/09/11 09:50:48;;;;;;;18.63;17.63;;;;;;;-141.02;50.50;41818.63;5133702;27;20216;-58
2023/09/11 09:53:25;;;;;;;18.13;17.23;;;;;;;-141.02;50.15;41818.63;5133832;27;20696;-58
2023/09/11 09:55:52;;;;;;;18.30;17.40;;;;;;;-141.02;49.29;41830.13;5134013;27;20215;-58
2023/09/11 09:58:24;;;;;;;18.50;17.60;;;;;;;-141.02;49.56;41849.34;5133630;27;20196;-58
2023/09/11 10:00:58;;;;;;;18.40;17.40;;;;;;;-141.02;50.10;41860.84;5133868;27;20189;-58
2023/09/11 10:03:26;;;;;;;18.15;17.25;;;;;;;-141.02;49.42;41883.88;5133894;27;20222;-58
2023/09/11 10:05:53;;;;;;;18.20;17.30;;;;;;;-141.02;49.98;41906.91;5133351;27;20255;-58
2023/09/11 10:08:20;;;;;;;18.63;17.63;;;;;;;-141.02;50.15;41897.31;5133477;27;20279;-58
2023/09/11 10:10:47;;;;;;;18.25;17.25;;;;;;;-141.02;49.54;41926.09;5133352;27;20224;-58
2023/09/11 10:13:15;;;;;;;18.40;17.40;;;;;;;-141.02;49.08;41912.66;5133668;27;20275;-58
2023/09/11 10:15:44;;;;;;;18.00;17.10;;;;;;;-141.02;49.65;41922.25;5133373;27;20201;-58
2023/09/11 10:18:13;;;;;;;18.13;17.23;;;;;;;-141.02;50.09;41952.97;5133252;27;20222;-58
2023/09/11 10:20:41;;;;;;;18.17;17.27;;;;;;;-141.02;50.27;41949.13;5133242;27;20192;-58
2023/09/11 10:23:09;;;;;;;17.33;16.42;;;;;;;-141.02;49.74;41931.84;5133493;27;20224;-67
2023/09/11 10:25:39;;;;;;;17.17;16.27;;;;;;;-141.02;50.02;41966.41;5133538;27;20262;-58
2023/09/11 10:28:08;;;;;;;17.55;16.55;;;;;;;-141.02;48.90;41931.84;5133192;27;20189;-58
2023/09/11 10:30:49;;;;;;;17.45;16.55;;;;;;;-141.02;48.31;41933.78;5132976;27;20232;-58
2023/09/11 10:33:21;;;;;;;17.23;16.30;;;;;;;-141.02;48.78;41943.38;5133128;27;20184;-58
2023/09/11 10:35:52;;;;;;;17.77;16.77;;;;;;;-141.02;48.16;41945.28;5133109;27;20651;-58
2023/09/11 10:38:20;;;;;;;17.98;17.00;;;;;;;-141.02;49.06;41993.28;5133374;27;20192;-58
2023/09/11 10:40:48;;;;;;;18.05;17.15;;;;;;;-141.02;48.38;41987.50;5133263;27;20245;-58
2023/09/11 10:43:15;;;;;;;18.13;17.13;;;;;;;-141.02;48.67;42002.88;5133341;27;20189;-58
2023/09/11 10:45:42;;;;;;;18.85;17.85;;;;;;;-141.02;48.68;42022.06;5133277;27;20570;-58
2023/09/11 10:48:28;;;;;;;18.58;17.58;;;;;;;-141.02;48.21;42016.31;5133280;27;20280;-58
2023/09/11 10:50:56;;;;;;;18.60;17.60;;;;;;;-141.02;48.60;42022.06;5137175;27;20613;-58
2023/09/11 10:53:27;;;;;;;18.00;17.10;;;;;;;-141.02;48.38;42010.53;5138066;27;20200;-60
2023/09/11 10:55:55;;;;;;;18.00;17.10;;;;;;;-141.02;48.09;42016.31;5137476;27;20207;-58
2023/09/11 10:58:23;;;;;;;17.77;16.88;;;;;;;-141.02;47.55;42056.59;5137067;27;20725;-58
2023/09/11 11:00:53;;;;;;;17.95;17.05;;;;;;;-141.02;48.30;42041.25;5136948;27;20204;-58
2023/09/11 11:03:20;;;;;;;17.85;16.85;;;;;;;-141.02;48.40;42062.38;5137058;27;20196;-58
2023/09/11 11:05:49;;;;;;;17.77;16.88;;;;;;;-141.02;48.64;42071.97;5136770;27;20228;-58